北九州空港の過去48時間の天気

北九州空港 (Kitakyushu)

現在時刻: 1/23 14:53 JST (1/23 05:53 UTC) 以下の時間は現地時間です。

過去48時間のMETAR気象情報
時間 風向 風速(m/s) 視程 気温(℃) 湿度(%) 気圧(hPa) 天気現象
23 14:09 西 10 10km以上 6 45 1017
23 14:00 西 11 10km以上 6 45 1017
23 13:00 西 9 10km以上 6 49 1017
23 12:10 西 10 10km以上 7 45 1017
23 12:00 西北西 11 10km以上 7 42 1017
23 11:08 西北西 12 10km以上 7 49 1018 周辺でしゅう雨
23 11:00 西北西 12 10km以上 7 49 1018 周辺でしゅう雨
23 10:31 西北西 11 10km以上 7 49 1017
23 10:00 西 10 10km以上 7 49 1017
23 09:08 西 8 10km以上 7 53 1016
23 09:00 西 7 10km以上 7 53 1016
23 08:00 西 9 10km以上 7 57 1015
23 07:00 西 9 10km以上 7 61 1014
23 06:00 西 9 10km以上 8 57 1014
23 05:04 西 11 10km以上 9 57 1013
23 05:00 西 11 10km以上 9 57 1013
23 04:00 西 10 7,000m 9 62 1012
23 03:00 西南西 6 10km以上 8 71 1012
23 02:00 西南西 5 10km以上 8 71 1012 弱いしゅう雨
23 01:00 南西 5 10km以上 7 76 1012
23 00:00 南南西 6 10km以上 7 76 1012
22 23:00 南南西 5 10km以上 6 81 1013
22 22:00 3 10km以上 5 87 1013
22 21:00 南南西 4 10km以上 5 87 1014
22 20:00 南南西 4 10km以上 6 81 1014
22 19:00 4 10km以上 6 81 1014
22 18:00 3 10km以上 6 81 1014
22 17:00 2 10km以上 5 87 1014
22 16:00 不定 1 10km以上 5 81 1013
22 15:00 西南西 2 10km以上 5 81 1013
22 14:00 南南東 2 10km以上 4 81 1013
22 13:08 南南東 2 10km以上 4 81 1013 弱いしゅう雨
22 12:00 東北東 3 10km以上 4 81 1014 弱いしゅう雨
22 11:33 4 10km以上 4 81 1015 弱いしゅう雨
22 11:09 4 10km以上 4 81 1015 しゅう雨
22 11:00 東北東 4 10km以上 4 81 1015 弱いしゅう雨
22 10:44 東北東 4 8,000m 4 81 1015 しゅう雨
22 10:00 北東 4 8,000m 5 81 1016 弱いしゅう雨
22 09:00 北北東 2 10km以上 5 75 1016 弱いしゅう雨
22 08:00 不定 2 10km以上 6 70 1016 弱いしゅう雨
22 07:00 北北東 2 10km以上 7 66 1015 弱い雨
22 06:00 3 10km以上 8 57 1015 弱い雨
22 05:00 東北東 4 10km以上 8 61 1015
22 04:00 4 10km以上 8 66 1016
22 03:00 東北東 5 10km以上 8 61 1017
22 02:00 5 10km以上 8 61 1017
22 01:00 4 10km以上 9 57 1018
22 00:00 4 10km以上 8 61 1018
21 23:00 4 10km以上 9 66 1019
21 22:00 北東 7 10km以上 8 57 1019
21 21:00 北東 7 10km以上 8 53 1020
21 20:00 北東 6 10km以上 8 57 1020
21 19:00 北北東 6 10km以上 9 50 1020
21 18:00 6 10km以上 9 50 1020
21 17:00 北北東 6 10km以上 10 50 1020
21 16:00 4 10km以上 11 40 1019
21 15:00 4 10km以上 11 40 1019
RJFR 230509Z 27019G29KT 9999 FEW030 BKN050 BKN100 06/M05 Q1017 RMK 1CU030 5CU050 7AC100 A3005
RJFR 230500Z 26021KT 9999 FEW030 BKN045 BKN100 06/M05 Q1017
RJFR 230400Z 28018G28KT 9999 FEW030 BKN045 06/M04 Q1017
RJFR 230310Z 28019G29KT 9999 FEW030 BKN045 07/M04 Q1017 RMK 1CU030 5CU045 A3005
RJFR 230300Z 29021KT 9999 FEW030 BKN045 07/M05 Q1017
RJFR 230208Z 29023G34KT 9999 VCSH FEW030 SCT045 07/M03 Q1018 RMK 1CU030 4CU045 A3006
RJFR 230200Z 29023KT 9999 VCSH FEW030 BKN045 07/M03 Q1018
RJFR 230131Z 29022G33KT 9999 FEW035 SCT045 07/M03 Q1017 RMK 1CU035 3CU045 A3005
RJFR 230100Z 28020KT 9999 FEW035 SCT045 07/M03 Q1017
RJFR 230008Z 28016G27KT 9999 FEW035 BKN045 07/M02 Q1016 RMK 2CU035 5CU045 A3002
RJFR 230000Z 27014KT 9999 FEW035 BKN045 07/M02 Q1016
RJFR 222300Z 26017KT 9999 FEW035 07/M01 Q1015
RJFR 222200Z 26018KT 9999 FEW040 07/00 Q1014
RJFR 222100Z 28017KT 9999 FEW035 08/00 Q1014
RJFR 222004Z 28021G31KT 9999 FEW035 09/01 Q1013 RMK 2CU035 A2991
RJFR 222000Z 28021KT 9999 FEW035 09/01 Q1013
RJFR 221900Z 27019G30KT 7000 FEW025 SCT030 BKN040 09/02 Q1012
RJFR 221800Z 24011KT 9999 FEW025 SCT050 BKN120 08/03 Q1012
RJFR 221700Z 24010KT 9999 -SHRA FEW025 BKN040 BKN050 08/03 Q1012
RJFR 221600Z 23009KT 9999 FEW040 SCT/// 07/03 Q1012
RJFR 221500Z 21011KT 9999 FEW030 SCT040 BKN050 07/03 Q1012
RJFR 221400Z 20009KT 9999 FEW030 BKN070 06/03 Q1013
RJFR 221300Z 19005KT 9999 FEW025 BKN050 05/03 Q1013
RJFR 221200Z 21007KT 9999 FEW025 SCT050 05/03 Q1014
RJFR 221100Z 20007KT 9999 FEW025 06/03 Q1014
RJFR 221000Z 18007KT 9999 FEW015 SCT025 06/03 Q1014
RJFR 220900Z 17005KT 9999 FEW015 BKN025 BKN060 06/03 Q1014
RJFR 220800Z 17003KT 9999 FEW015 BKN025 05/03 Q1014
RJFR 220700Z VRB01KT 9999 FEW008 SCT014 05/02 Q1013
RJFR 220600Z 24004KT 9999 FEW008 BKN010 05/02 Q1013
RJFR 220500Z 16003KT 120V190 9999 FEW007 BKN009 BKN020 04/01 Q1013
RJFR 220408Z 15003KT 110V180 9999 -SHRA FEW007 BKN009 BKN020 04/01 Q1013 RMK 1ST007 6CU009 7CU020 A2993
RJFR 220300Z 06006KT 030V100 9999 -SHRA FEW008 BKN010 BKN020 04/01 Q1014
RJFR 220233Z 08007KT 9999 -SHRA FEW008 BKN015 BKN025 04/01 Q1015 RMK 1ST008 5CU015 7CU025 A2997
RJFR 220209Z 08007KT 040V110 9999 SHRA FEW008 BKN015 BKN025 04/01 Q1015 RMK 1ST008 5CU015 7CU025 A2998
RJFR 220200Z 07007KT 040V100 9999 -SHRA FEW008 BKN015 BKN025 04/01 Q1015
RJFR 220144Z 06007KT 8000 SHRA FEW010 SCT015 BKN025 04/01 Q1015 RMK 1CU010 4CU015 6SC025 A3000
RJFR 220100Z 05008KT 8000 -SHRA FEW010 BKN020 BKN035 05/02 Q1016
RJFR 220000Z 03003KT 350V120 9999 -SHRA FEW015 BKN025 BKN040 05/01 Q1016
RJFR 212300Z VRB04KT 9999 -SHRA SCT020 BKN030 06/01 Q1016
RJFR 212200Z 02004KT 9999 -RA FEW010 SCT030 BKN045 07/01 Q1015
RJFR 212100Z VRB05KT 9999 -RA FEW030 SCT050 BKN070 08/00 Q1015
RJFR 212000Z 06008KT 9999 FEW030 SCT070 BKN090 08/01 Q1015
RJFR 211900Z VRB07KT 9999 FEW030 BKN080 BKN100 08/02 Q1016
RJFR 211800Z 07010KT 9999 FEW030 BKN110 BKN130 08/01 Q1017
RJFR 211700Z VRB09KT CAVOK 08/01 Q1017
RJFR 211600Z VRB07KT CAVOK 09/01 Q1018
RJFR 211500Z VRB08KT CAVOK 08/01 Q1018
RJFR 211400Z VRB08KT CAVOK 09/03 Q1019
RJFR 211300Z 05013KT CAVOK 08/M00 Q1019
RJFR 211200Z 04013KT 9999 FEW030 BKN170 08/M01 Q1020
RJFR 211100Z 04012KT 9999 FEW030 BKN170 BKN/// 08/00 Q1020
RJFR 211000Z 02012KT 9999 FEW030 BKN/// 09/M01 Q1020
RJFR 210900Z 01012KT 9999 FEW030 BKN180 09/M01 Q1020
RJFR 210800Z 02012KT 9999 FEW030 BKN/// 10/M00 Q1020
RJFR 210700Z 01007KT 9999 FEW050 BKN/// 11/M02 Q1019
RJFR 210600Z 01008KT 9999 FEW050 BKN/// 11/M02 Q1019